Time;durP1;ratioP1;P1;durP2;ratioP2;P2;SDS_P1;SDS_P2;PMS_P1;PMS_P2;Temp;Humidity;BMP_temperature;BMP_pressure;BME280_temperature;BME280_humidity;BME280_pressure;Samples;Min_cycle;Max_cycle;Signal;HPM_P1;HPM_P2
2021/12/29 08:24:58;;;;;;;474.63;214.65;;;6.40;99.90;;;;;;6100099;22;3162041;-84
2021/12/29 08:27:25;;;;;;;487.85;212.77;;;7.70;99.90;;;;;;6224575;23;20012;-85
2021/12/29 08:29:50;;;;;;;466.08;198.43;;;7.90;99.90;;;;;;6224968;23;20015;-85
2021/12/29 08:32:17;;;;;;;495.10;207.35;;;8.10;99.90;;;;;;6224213;23;20009;-85
2021/12/29 08:34:43;;;;;;;525.95;213.95;;;8.20;99.90;;;;;;6223940;23;20404;-85
2021/12/29 08:37:17;;;;;;;479.42;196.05;;;8.30;99.90;;;;;;6224672;23;20001;-85
2021/12/29 08:39:47;;;;;;;497.73;205.77;;;8.30;99.90;;;;;;6224579;23;19996;-85
2021/12/29 08:42:12;;;;;;;482.33;204.63;;;8.40;99.90;;;;;;6224883;23;20305;-85
2021/12/29 08:44:38;;;;;;;451.35;188.50;;;8.50;99.90;;;;;;6225192;23;20028;-85
2021/12/29 08:47:05;;;;;;;402.05;164.02;;;8.50;99.90;;;;;;6225140;23;20000;-85
2021/12/29 08:49:44;;;;;;;368.40;153.15;;;8.60;99.90;;;;;;6224688;23;20084;-85
2021/12/29 08:52:10;;;;;;;303.05;131.93;;;8.50;99.90;;;;;;6224001;23;20011;-85
2021/12/29 08:54:37;;;;;;;259.33;116.20;;;8.60;99.90;;;;;;6224258;23;20004;-85
2021/12/29 08:57:03;;;;;;;277.38;123.78;;;8.60;99.90;;;;;;6224897;23;20008;-87
2021/12/29 08:59:50;;;;;;;216.98;103.05;;;8.70;99.90;;;;;;6223846;23;20050;-86
2021/12/29 09:02:23;;;;;;;175.68;86.25;;;8.70;99.90;;;;;;6224706;23;20001;-87
2021/12/29 09:04:49;;;;;;;195.40;93.63;;;8.80;99.90;;;;;;6224320;23;20001;-86
2021/12/29 09:07:15;;;;;;;195.30;96.15;;;8.90;99.90;;;;;;6225187;23;20015;-87
2021/12/29 09:09:41;;;;;;;205.93;99.57;;;8.90;99.90;;;;;;6224710;23;19997;-86
2021/12/29 09:12:34;;;;;;;163.90;85.90;;;8.90;99.90;;;;;;6224583;23;20000;-89
2021/12/29 09:15:08;;;;;;;190.35;93.13;;;8.90;99.90;;;;;;6224288;23;20008;-87
2021/12/29 09:17:52;;;;;;;190.98;92.93;;;9.10;99.90;;;;;;6224398;23;20001;-84
2021/12/29 09:20:27;;;;;;;175.60;87.40;;;9.20;99.90;;;;;;6224041;23;20012;-86
2021/12/29 09:23:38;;;;;;;168.17;84.13;;;9.20;99.90;;;;;;6224279;23;20091;-87
2021/12/29 09:26:05;;;;;;;150.10;74.00;;;9.30;99.90;;;;;;6137171;23;20013;-87
2021/12/29 09:28:53;;;;;;;153.40;77.15;;;9.30;99.90;;;;;;6160966;23;20094;-87
2021/12/29 09:31:20;;;;;;;165.68;81.03;;;9.50;99.90;;;;;;6162053;23;20033;-86
2021/12/29 09:33:46;;;;;;;151.98;76.85;;;9.70;99.90;;;;;;6162371;23;20005;-87
2021/12/29 09:36:12;;;;;;;149.32;72.38;;;9.80;99.90;;;;;;6162621;23;20009;-87
2021/12/29 09:38:42;;;;;;;138.77;70.53;;;9.90;99.90;;;;;;6162506;23;20325;-85
2021/12/29 09:41:10;;;;;;;127.07;63.25;;;10.10;99.90;;;;;;6162697;23;20008;-85
2021/12/29 09:43:37;;;;;;;130.38;65.28;;;10.20;99.90;;;;;;6162741;23;20031;-86
2021/12/29 09:46:05;;;;;;;91.03;47.78;;;10.40;99.90;;;;;;6162117;23;20084;-86
2021/12/29 09:48:33;;;;;;;70.13;39.05;;;10.40;99.90;;;;;;6162475;23;20009;-86
2021/12/29 09:51:05;;;;;;;77.22;39.13;;;10.40;99.90;;;;;;6162367;23;20479;-87
2021/12/29 09:57:12;;;;;;;103.85;54.13;;;10.70;99.90;;;;;;6075523;23;20063;-86
2021/12/29 09:59:59;;;;;;;99.05;51.78;;;10.70;99.90;;;;;;6162663;23;20088;-91
2021/12/29 10:06:48;;;;;;;111.25;52.80;;;10.50;99.90;;;;;;6040309;23;20294;-86
2021/12/29 10:09:21;;;;;;;109.40;54.85;;;10.40;99.90;;;;;;6030248;23;20003;-87
2021/12/29 10:11:53;;;;;;;109.00;53.50;;;10.40;99.90;;;;;;6151210;23;20080;-87
2021/12/29 10:14:22;;;;;;;109.15;54.03;;;10.40;99.90;;;;;;6161420;23;20019;-89
2021/12/29 10:16:52;;;;;;;106.40;51.83;;;10.40;99.90;;;;;;6162325;23;20005;-89
2021/12/29 10:19:18;;;;;;;99.30;47.80;;;10.50;99.90;;;;;;6162916;23;20007;-88
2021/12/29 10:21:50;;;;;;;94.07;44.22;;;10.50;99.90;;;;;;6162427;23;20005;-89
2021/12/29 10:24:19;;;;;;;80.63;41.92;;;10.60;99.90;;;;;;6185164;23;20031;-88
2021/12/29 10:26:49;;;;;;;84.32;41.08;;;10.60;99.90;;;;;;6217565;23;20004;-88
2021/12/29 10:29:22;;;;;;;84.68;41.08;;;10.60;99.90;;;;;;6217116;23;20043;-88
2021/12/29 10:31:56;;;;;;;89.38;44.25;;;10.60;99.90;;;;;;6217255;23;20012;-88
2021/12/29 10:35:04;;;;;;;76.82;38.28;;;10.60;99.90;;;;;;6217018;23;20087;-87
2021/12/29 10:37:30;;;;;;;85.30;43.95;;;10.70;99.90;;;;;;6216247;23;19997;-88
2021/12/29 10:39:59;;;;;;;85.88;45.60;;;10.80;99.90;;;;;;6217053;23;20076;-88
2021/12/29 10:42:25;;;;;;;76.28;42.22;;;11.00;99.90;;;;;;6217248;23;20009;-88
2021/12/29 10:44:59;;;;;;;84.75;43.72;;;11.10;99.90;;;;;;6216701;23;20005;-88
2021/12/29 10:47:31;;;;;;;82.18;43.55;;;11.30;99.90;;;;;;6217192;23;20000;-89
2021/12/29 10:50:35;;;;;;;67.13;37.33;;;11.40;99.90;;;;;;6217250;23;20004;-89
2021/12/29 10:53:37;;;;;;;66.13;36.03;;;11.40;99.90;;;;;;6101863;23;20101;-90
2021/12/29 10:56:31;;;;;;;61.80;31.40;;;11.20;99.90;;;;;;6039224;23;20011;-90
2021/12/29 10:59:28;;;;;;;62.08;33.13;;;11.10;99.90;;;;;;6101943;23;20002;-89
2021/12/29 11:02:46;;;;;;;72.05;37.67;;;11.20;99.90;;;;;;6194872;23;20375;-88
2021/12/29 11:06:01;;;;;;;69.13;35.90;;;11.20;99.90;;;;;;6211123;23;20008;-88
2021/12/29 11:08:30;;;;;;;70.43;37.22;;;11.20;99.90;;;;;;6213037;23;20005;-89
2021/12/29 11:11:07;;;;;;;74.07;37.88;;;11.30;99.90;;;;;;6215172;23;20004;-89
2021/12/29 11:14:21;;;;;;;59.88;32.88;;;11.40;99.90;;;;;;6214293;23;20000;-88
2021/12/29 11:17:02;;;;;;;56.58;30.58;;;11.50;99.90;;;;;;6216224;23;20027;-88
2021/12/29 11:19:29;;;;;;;49.67;25.30;;;11.60;99.90;;;;;;6216285;23;20332;-88
2021/12/29 11:22:19;;;;;;;36.22;19.80;;;11.60;99.90;;;;;;6216405;23;20028;-88
2021/12/29 11:25:35;;;;;;;41.08;20.77;;;11.60;99.90;;;;;;6212539;23;20031;-89
2021/12/29 11:28:08;;;;;;;44.42;22.13;;;11.70;99.90;;;;;;6190871;23;20343;-89
2021/12/29 11:37:36;;;;;;;42.67;23.00;;;11.90;99.90;;;;;;6217883;23;20007;-88
2021/12/29 11:40:07;;;;;;;38.00;19.88;;;11.90;99.90;;;;;;6210856;23;20036;-92
2021/12/29 11:42:38;;;;;;;39.40;22.20;;;11.90;99.90;;;;;;6216757;23;20062;-87
2021/12/29 11:45:05;;;;;;;43.70;23.85;;;11.80;99.90;;;;;;6217434;23;20001;-89
2021/12/29 11:47:31;;;;;;;45.60;24.48;;;11.80;99.90;;;;;;6216762;23;20057;-89
2021/12/29 11:50:02;;;;;;;43.72;24.42;;;11.80;99.90;;;;;;6216621;23;20027;-88
2021/12/29 11:52:37;;;;;;;46.33;25.08;;;12.00;99.90;;;;;;6227532;23;20004;-88
2021/12/29 11:55:15;;;;;;;58.10;29.25;;;12.30;99.90;;;;;;6224377;23;20005;-89
2021/12/29 11:57:44;;;;;;;58.53;30.67;;;12.50;99.90;;;;;;6221797;23;20012;-91
2021/12/29 12:00:18;;;;;;;62.38;31.02;;;12.70;99.90;;;;;;6218349;23;20005;-88
2021/12/29 12:03:22;;;;;;;74.85;35.22;;;13.10;99.90;;;;;;6216226;23;20005;-88
2021/12/29 12:05:53;;;;;;;56.78;30.15;;;13.20;99.90;;;;;;6216530;23;20008;-88
2021/12/29 12:09:25;;;;;;;58.38;29.70;;;13.40;99.90;;;;;;6216105;23;20004;-87
2021/12/29 12:12:02;;;;;;;52.72;27.55;;;13.70;99.90;;;;;;6102442;23;20089;-89
2021/12/29 12:14:31;;;;;;;55.42;27.73;;;13.80;99.90;;;;;;6102541;23;20010;-89
2021/12/29 12:17:15;;;;;;;45.95;24.58;;;13.60;99.90;;;;;;6187857;23;20009;-88
2021/12/29 12:23:25;;;;;;;52.42;28.17;;;13.70;99.90;;;;;;6209938;23;20316;-88
2021/12/29 12:25:52;;;;;;;52.70;25.77;;;14.10;99.90;;;;;;6214268;23;20028;-88
2021/12/29 12:28:23;;;;;;;58.45;30.38;;;14.30;99.90;;;;;;6215943;23;20083;-87
2021/12/29 12:30:53;;;;;;;57.92;31.10;;;14.20;99.90;;;;;;6215899;23;20416;-87
2021/12/29 12:33:29;;;;;;;58.40;30.95;;;14.20;99.90;;;;;;6216906;23;20004;-87
2021/12/29 12:36:06;;;;;;;62.78;33.10;;;14.10;99.90;;;;;;6217121;23;20015;-88
2021/12/29 12:38:35;;;;;;;65.90;34.10;;;14.00;99.90;;;;;;6216687;23;20039;-87
2021/12/29 12:41:04;;;;;;;68.88;35.08;;;13.90;99.90;;;;;;6216566;23;20087;-87
2021/12/29 12:43:32;;;;;;;71.30;37.15;;;13.80;99.90;;;;;;6216648;23;20142;-88
2021/12/29 12:45:58;;;;;;;78.55;38.63;;;13.80;99.90;;;;;;6216626;23;20005;-88
2021/12/29 12:48:30;;;;;;;77.28;38.63;;;13.60;99.90;;;;;;6216085;23;20001;-88
2021/12/29 12:51:00;;;;;;;76.55;37.30;;;13.40;99.90;;;;;;6216233;23;20008;-87
2021/12/29 12:53:52;;;;;;;72.18;37.58;;;13.30;99.90;;;;;;6216672;23;20005;-87
2021/12/29 12:56:23;;;;;;;66.30;36.33;;;13.30;99.90;;;;;;6214988;23;20009;-87
2021/12/29 13:01:57;;;;;;;69.68;34.33;;;13.20;99.90;;;;;;6219358;23;20032;-87
2021/12/29 13:04:26;;;;;;;101.38;45.00;;;13.10;99.90;;;;;;6218350;23;20009;-88
2021/12/29 13:06:52;;;;;;;72.65;34.70;;;13.10;99.90;;;;;;6218823;23;19997;-87
2021/12/29 13:09:20;;;;;;;87.05;41.42;;;13.10;99.90;;;;;;6218463;23;20000;-87
2021/12/29 13:11:46;;;;;;;83.35;39.30;;;13.30;99.90;;;;;;6218354;23;20000;-88
2021/12/29 13:14:16;;;;;;;67.13;32.45;;;13.70;99.90;;;;;;6218554;23;20008;-88
2021/12/29 13:16:42;;;;;;;54.67;26.13;;;14.00;99.90;;;;;;6217944;23;20004;-88
2021/12/29 13:19:11;;;;;;;48.50;24.55;;;13.90;99.90;;;;;;6217755;23;20008;-87
2021/12/29 13:21:41;;;;;;;49.20;24.88;;;13.70;99.90;;;;;;6218657;23;20079;-88
2021/12/29 13:24:10;;;;;;;54.22;25.63;;;13.70;99.90;;;;;;6217785;23;20008;-87
2021/12/29 13:26:45;;;;;;;57.47;27.92;;;13.60;99.90;;;;;;6218434;23;20063;-88
2021/12/29 13:29:16;;;;;;;75.40;32.63;;;13.50;99.90;;;;;;6218544;23;20005;-88
2021/12/29 13:31:42;;;;;;;68.53;33.90;;;13.50;99.90;;;;;;6218141;23;20004;-88
2021/12/29 13:34:09;;;;;;;77.82;33.28;;;13.50;99.90;;;;;;6217897;23;20058;-88
2021/12/29 13:36:35;;;;;;;82.30;34.85;;;13.50;99.90;;;;;;6217965;23;20066;-89
2021/12/29 13:39:01;;;;;;;103.95;41.15;;;13.40;99.90;;;;;;6217157;23;20008;-88
2021/12/29 13:41:35;;;;;;;92.57;41.08;;;13.40;99.90;;;;;;6217595;23;20450;-89
2021/12/29 13:47:31;;;;;;;114.00;42.75;;;13.10;99.90;;;;;;6157316;23;19998;-87
2021/12/29 13:50:29;;;;;;;108.28;43.60;;;13.00;99.90;;;;;;6157142;23;20033;-87
2021/12/29 13:52:58;;;;;;;127.32;48.53;;;13.00;99.90;;;;;;6131987;23;20005;-86
2021/12/29 13:55:31;;;;;;;131.48;46.78;;;12.90;99.90;;;;;;6190511;23;20070;-86
2021/12/29 13:57:57;;;;;;;128.27;48.17;;;12.80;99.90;;;;;;6217247;23;20012;-87
2021/12/29 14:00:28;;;;;;;130.82;48.15;;;12.80;99.90;;;;;;6217681;23;20363;-87
2021/12/29 14:03:43;;;;;;;134.35;50.00;;;12.90;99.90;;;;;;6217698;23;20016;-89
2021/12/29 14:06:09;;;;;;;153.55;53.60;;;12.90;99.90;;;;;;6217787;23;20068;-87
2021/12/29 14:08:38;;;;;;;179.77;65.07;;;12.80;99.90;;;;;;6218197;23;20007;-88
2021/12/29 14:11:07;;;;;;;187.32;66.80;;;12.70;99.90;;;;;;6217720;23;20000;-88
2021/12/29 14:14:09;;;;;;;164.65;62.65;;;12.70;99.90;;;;;;6218005;23;20009;-89
2021/12/29 14:16:54;;;;;;;153.32;54.90;;;12.70;99.90;;;;;;6103458;23;20010;-88
2021/12/29 14:23:10;;;;;;;127.85;48.53;;;12.40;99.90;;;;;;6040778;23;20034;-87
2021/12/29 14:25:43;;;;;;;133.40;49.13;;;12.30;99.90;;;;;;6016985;23;20015;-88
2021/12/29 14:28:19;;;;;;;121.35;47.22;;;12.30;99.90;;;;;;6206229;23;20028;-88
2021/12/29 14:30:55;;;;;;;;;;;12.30;99.90;;;;;;6217882;23;20079;-87
2021/12/29 14:33:33;;;;;;;98.47;41.58;;;12.30;99.90;;;;;;6217906;23;19987;-88
2021/12/29 14:35:59;;;;;;;91.63;42.50;;;12.20;99.90;;;;;;6217723;23;20016;-88
2021/12/29 14:39:08;;;;;;;66.72;32.58;;;12.10;99.90;;;;;;6217727;23;20331;-89
2021/12/29 14:41:35;;;;;;;70.70;35.08;;;12.00;99.90;;;;;;6217556;23;20004;-91
2021/12/29 14:44:50;;;;;;;109.18;51.05;;;12.00;99.90;;;;;;6217629;23;20009;-90
2021/12/29 14:47:11;;;;;;;75.57;39.58;;;12.00;99.90;;;;;;6210964;23;19997;-89
2021/12/29 14:49:39;;;;;;;87.68;44.70;;;12.10;99.90;;;;;;6217263;23;20004;-88
2021/12/29 14:52:15;;;;;;;97.85;46.47;;;12.10;99.90;;;;;;6217509;23;19997;-88
2021/12/29 14:54:50;;;;;;;80.07;39.55;;;12.20;99.90;;;;;;6217699;23;20003;-88
2021/12/29 14:57:22;;;;;;;81.05;36.22;;;12.20;99.90;;;;;;6217290;23;20016;-87
2021/12/29 14:59:49;;;;;;;115.93;47.03;;;12.20;99.90;;;;;;6217416;23;20004;-88
2021/12/29 15:02:18;;;;;;;135.30;56.30;;;12.20;99.90;;;;;;6217417;23;20000;-89
2021/12/29 15:05:08;;;;;;;135.43;57.17;;;12.10;99.90;;;;;;6217590;23;20007;-89
2021/12/29 15:07:36;;;;;;;138.68;57.38;;;12.00;99.90;;;;;;6216797;23;20003;-90
2021/12/29 15:10:16;;;;;;;142.82;57.28;;;12.00;99.90;;;;;;6216904;23;19997;-89
2021/12/29 15:12:52;;;;;;;150.80;58.80;;;11.90;99.90;;;;;;6216881;23;20091;-89
2021/12/29 15:15:29;;;;;;;166.77;63.03;;;11.80;99.90;;;;;;6217433;23;20009;-89
2021/12/29 15:18:38;;;;;;;141.98;56.95;;;11.70;99.90;;;;;;6216793;23;20004;-89
2021/12/29 15:21:11;;;;;;;153.30;64.60;;;11.60;99.90;;;;;;6216236;23;20004;-89
2021/12/29 15:23:47;;;;;;;128.52;59.13;;;11.60;99.90;;;;;;6215930;23;20005;-88
2021/12/29 15:26:19;;;;;;;122.72;56.10;;;11.50;99.90;;;;;;6192655;23;20020;-88
2021/12/29 15:42:19;;;;;;;113.75;51.85;;;10.90;99.90;;;;;;6125858;23;20405;-88
2021/12/29 15:45:12;;;;;;;100.47;45.95;;;10.70;99.90;;;;;;6101600;23;20002;-88
2021/12/29 15:47:41;;;;;;;76.78;38.33;;;10.60;99.90;;;;;;6096227;23;20021;-88
2021/12/29 15:50:09;;;;;;;81.57;39.05;;;10.50;99.90;;;;;;6102360;23;20002;-87
2021/12/29 15:52:36;;;;;;;83.90;40.60;;;10.50;99.90;;;;;;6102547;23;20010;-87
2021/12/29 15:55:20;;;;;;;97.90;46.70;;;10.60;99.90;;;;;;6187902;23;20403;-87
2021/12/29 15:57:55;;;;;;;164.50;71.35;;;10.60;99.90;;;;;;6216759;23;20022;-87
2021/12/29 16:00:47;;;;;;;139.60;64.03;;;10.70;99.90;;;;;;6216207;23;20016;-86
2021/12/29 16:03:33;;;;;;;171.23;73.97;;;10.70;99.90;;;;;;6203097;23;20495;-88
2021/12/29 16:06:04;;;;;;;118.15;52.55;;;10.70;99.90;;;;;;6193010;23;20005;-87
2021/12/29 16:08:32;;;;;;;157.63;66.72;;;10.70;99.90;;;;;;6217024;23;20012;-87
2021/12/29 16:10:58;;;;;;;204.27;88.90;;;10.70;99.90;;;;;;6216792;23;20087;-88
2021/12/29 16:13:24;;;;;;;222.77;101.75;;;10.60;99.90;;;;;;6216192;23;20005;-88
2021/12/29 16:16:01;;;;;;;250.40;116.45;;;10.50;99.90;;;;;;6215931;23;20019;-88
2021/12/29 16:18:40;;;;;;;271.65;122.70;;;10.30;99.90;;;;;;6216349;23;20008;-88
2021/12/29 16:24:31;;;;;;;361.08;148.50;;;10.10;99.90;;;;;;6217410;23;20063;-89
2021/12/29 16:27:15;;;;;;;354.10;147.38;;;10.00;99.90;;;;;;6215682;23;19997;-88
2021/12/29 16:29:41;;;;;;;313.33;130.52;;;10.00;99.90;;;;;;6217580;23;20365;-89
2021/12/29 16:32:08;;;;;;;315.15;131.68;;;10.00;99.90;;;;;;6216937;23;20007;-88
2021/12/29 16:34:47;;;;;;;325.23;132.73;;;10.00;99.90;;;;;;6216792;23;20008;-89
2021/12/29 16:41:04;;;;;;;402.60;160.00;;;9.90;99.90;;;;;;6128769;23;20045;-89
2021/12/29 16:43:37;;;;;;;416.90;162.50;;;10.00;99.90;;;;;;6120506;23;20440;-88
2021/12/29 16:46:03;;;;;;;359.60;142.07;;;10.00;99.90;;;;;;6218201;23;20032;-88
2021/12/29 16:52:25;;;;;;;265.75;113.47;;;9.90;99.90;;;;;;6219490;23;20071;-89
2021/12/29 16:58:36;;;;;;;248.43;104.03;;;9.80;99.90;;;;;;6127467;23;20044;-86
2021/12/29 17:01:11;;;;;;;251.70;107.68;;;9.80;99.90;;;;;;6114824;23;20017;-87
2021/12/29 17:03:37;;;;;;;;;;;9.90;99.90;;;;;;6217720;23;20055;-87
2021/12/29 17:06:03;;;;;;;230.68;98.13;;;9.90;99.90;;;;;;6218193;23;19900;-87
2021/12/29 17:08:42;;;;;;;232.00;99.90;;;9.90;99.90;;;;;;6218167;23;19997;-87
2021/12/29 17:11:09;;;;;;;291.77;121.95;;;9.90;99.90;;;;;;6217672;23;20005;-87
2021/12/29 17:13:35;;;;;;;245.57;108.35;;;10.00;99.90;;;;;;6218184;23;20421;-87
2021/12/29 17:16:01;;;;;;;210.85;93.88;;;10.10;99.90;;;;;;6218460;23;20088;-85
2021/12/29 17:18:27;;;;;;;251.02;114.80;;;10.10;99.90;;;;;;6218364;23;20013;-84
2021/12/29 17:20:53;;;;;;;245.23;111.15;;;10.10;99.90;;;;;;6218490;23;20028;-84
2021/12/29 17:23:18;;;;;;;222.07;102.85;;;10.10;99.90;;;;;;6217922;23;20424;-84
2021/12/29 17:25:45;;;;;;;197.80;93.30;;;10.10;99.90;;;;;;6217997;23;20032;-85
2021/12/29 17:28:11;;;;;;;179.57;83.43;;;10.10;99.90;;;;;;6218659;23;20027;-86
2021/12/29 17:30:37;;;;;;;202.73;90.53;;;10.10;99.90;;;;;;6217970;23;20012;-85
2021/12/29 17:33:03;;;;;;;210.90;91.18;;;10.10;99.90;;;;;;6217897;23;20039;-85
2021/12/29 17:35:29;;;;;;;200.38;90.50;;;10.10;99.90;;;;;;6218054;23;20005;-85
2021/12/29 17:37:56;;;;;;;236.32;105.15;;;10.10;99.90;;;;;;6218111;23;20090;-83
2021/12/29 17:40:24;;;;;;;252.63;117.70;;;10.10;99.90;;;;;;6217344;23;20031;-84
2021/12/29 17:42:50;;;;;;;299.45;132.93;;;10.10;99.90;;;;;;6217585;23;20008;-85
2021/12/29 17:45:18;;;;;;;305.05;137.38;;;10.10;99.90;;;;;;6217309;23;20004;-84
2021/12/29 17:47:48;;;;;;;270.20;122.28;;;10.20;99.90;;;;;;6221207;23;20428;-87
2021/12/29 17:50:16;;;;;;;240.27;111.05;;;10.20;99.90;;;;;;6219201;23;20000;-87
2021/12/29 17:52:42;;;;;;;215.23;102.60;;;10.30;99.90;;;;;;6217289;23;20060;-87
2021/12/29 17:55:09;;;;;;;222.13;101.32;;;10.30;99.90;;;;;;6217420;23;20043;-85
2021/12/29 17:57:36;;;;;;;254.27;112.35;;;10.40;99.90;;;;;;6217405;23;20005;-84
2021/12/29 18:00:04;;;;;;;227.75;103.53;;;10.30;99.90;;;;;;6217765;23;20008;-85
2021/12/29 18:02:30;;;;;;;308.50;126.78;;;10.30;99.90;;;;;;6217277;23;20013;-87
2021/12/29 18:04:56;;;;;;;348.67;134.50;;;10.20;99.90;;;;;;6217893;23;20135;-87
2021/12/29 18:07:22;;;;;;;372.65;143.05;;;10.20;99.90;;;;;;6217688;23;19997;-87
2021/12/29 18:09:48;;;;;;;406.85;163.07;;;10.20;99.90;;;;;;6217419;23;20011;-87
2021/12/29 18:12:13;;;;;;;437.67;178.75;;;10.10;99.90;;;;;;6217530;23;20001;-87
2021/12/29 18:14:39;;;;;;;518.17;224.05;;;10.10;99.90;;;;;;6217289;23;20497;-86
2021/12/29 18:17:05;;;;;;;533.25;219.02;;;10.10;99.90;;;;;;6217181;23;20354;-87
2021/12/29 18:19:31;;;;;;;498.75;206.70;;;10.10;99.90;;;;;;6219427;23;20004;-85
2021/12/29 18:21:57;;;;;;;470.20;192.30;;;10.10;99.90;;;;;;6217458;23;20080;-84
2021/12/29 18:24:22;;;;;;;455.17;178.32;;;10.10;99.90;;;;;;6217378;23;20035;-85
2021/12/29 18:26:48;;;;;;;432.77;173.40;;;10.10;99.90;;;;;;6217195;23;20005;-84
2021/12/29 18:29:15;;;;;;;365.88;150.23;;;10.00;99.90;;;;;;6217277;23;20078;-84
2021/12/29 18:31:42;;;;;;;356.55;141.05;;;9.80;99.90;;;;;;6217279;23;20340;-85
2021/12/29 18:34:09;;;;;;;326.15;133.40;;;9.80;99.90;;;;;;6219078;23;20004;-84
2021/12/29 18:36:35;;;;;;;293.13;124.82;;;9.90;99.90;;;;;;6217857;23;20306;-84
2021/12/29 18:39:01;;;;;;;314.25;131.75;;;9.90;99.90;;;;;;6217857;23;20014;-85
2021/12/29 18:41:27;;;;;;;316.10;132.80;;;9.90;99.90;;;;;;6217661;23;20005;-87
2021/12/29 18:43:54;;;;;;;367.98;153.57;;;9.90;99.90;;;;;;6216973;23;20004;-85
2021/12/29 18:46:22;;;;;;;386.27;162.68;;;10.00;99.90;;;;;;6219116;23;20015;-85
2021/12/29 18:48:49;;;;;;;359.85;155.63;;;10.00;99.90;;;;;;6217141;23;20005;-85
2021/12/29 18:51:16;;;;;;;409.55;186.45;;;10.00;99.90;;;;;;6216611;23;20079;-84
2021/12/29 18:53:42;;;;;;;384.98;169.52;;;10.00;99.90;;;;;;6218391;23;20443;-85
2021/12/29 18:56:10;;;;;;;394.23;167.80;;;10.10;99.90;;;;;;6217063;23;20333;-85
2021/12/29 18:58:36;;;;;;;384.85;167.35;;;10.00;99.90;;;;;;6216874;23;20011;-85
2021/12/29 19:01:02;;;;;;;332.75;147.45;;;10.00;99.90;;;;;;6217172;23;20032;-85
